sensor_id;sensor_type;location;lat;lon;timestamp;P1;durP1;ratioP1;P2;durP2;ratioP2
21677;SDS011;11000;50.360;7.582;2022-08-25T00:00:00;4.40;;;2.63;;
21677;SDS011;11000;50.360;7.582;2022-08-25T00:02:24;4.27;;;2.43;;
21677;SDS011;11000;50.360;7.582;2022-08-25T00:04:44;5.43;;;2.77;;
21677;SDS011;11000;50.360;7.582;2022-08-25T00:07:06;5.33;;;2.60;;
21677;SDS011;11000;50.360;7.582;2022-08-25T00:09:26;3.03;;;2.53;;
21677;SDS011;11000;50.360;7.582;2022-08-25T00:11:47;4.40;;;2.67;;
21677;SDS011;11000;50.360;7.582;2022-08-25T00:14:11;5.90;;;3.00;;
21677;SDS011;11000;50.360;7.582;2022-08-25T00:16:34;3.70;;;2.47;;
21677;SDS011;11000;50.360;7.582;2022-08-25T00:18:55;2.47;;;2.23;;
21677;SDS011;11000;50.360;7.582;2022-08-25T00:21:18;2.50;;;2.30;;
21677;SDS011;11000;50.360;7.582;2022-08-25T00:23:40;4.43;;;2.47;;
21677;SDS011;11000;50.360;7.582;2022-08-25T00:26:01;7.60;;;2.80;;
21677;SDS011;11000;50.360;7.582;2022-08-25T00:28:21;4.93;;;2.60;;
21677;SDS011;11000;50.360;7.582;2022-08-25T00:30:43;5.60;;;2.70;;
21677;SDS011;11000;50.360;7.582;2022-08-25T00:33:03;6.30;;;2.70;;
21677;SDS011;11000;50.360;7.582;2022-08-25T00:35:24;2.80;;;2.60;;
21677;SDS011;11000;50.360;7.582;2022-08-25T00:37:45;3.30;;;2.60;;
21677;SDS011;11000;50.360;7.582;2022-08-25T00:40:06;3.23;;;2.90;;
21677;SDS011;11000;50.360;7.582;2022-08-25T00:42:27;5.03;;;2.50;;
21677;SDS011;11000;50.360;7.582;2022-08-25T00:44:48;3.43;;;2.43;;
21677;SDS011;11000;50.360;7.582;2022-08-25T00:47:08;3.80;;;2.60;;
21677;SDS011;11000;50.360;7.582;2022-08-25T00:49:36;4.03;;;2.70;;
21677;SDS011;11000;50.360;7.582;2022-08-25T00:54:28;4.13;;;3.03;;
21677;SDS011;11000;50.360;7.582;2022-08-25T00:56:54;3.37;;;3.07;;
21677;SDS011;11000;50.360;7.582;2022-08-25T00:59:18;5.13;;;2.97;;
21677;SDS011;11000;50.360;7.582;2022-08-25T01:01:40;4.07;;;2.80;;
21677;SDS011;11000;50.360;7.582;2022-08-25T01:04:00;4.17;;;3.30;;
21677;SDS011;11000;50.360;7.582;2022-08-25T01:06:21;7.70;;;3.10;;
21677;SDS011;11000;50.360;7.582;2022-08-25T01:08:42;3.60;;;2.40;;
21677;SDS011;11000;50.360;7.582;2022-08-25T01:11:05;3.53;;;2.67;;
21677;SDS011;11000;50.360;7.582;2022-08-25T01:15:55;3.83;;;2.70;;
21677;SDS011;11000;50.360;7.582;2022-08-25T01:18:16;4.73;;;2.60;;
21677;SDS011;11000;50.360;7.582;2022-08-25T01:20:37;4.20;;;3.13;;
21677;SDS011;11000;50.360;7.582;2022-08-25T01:22:58;2.17;;;2.07;;
21677;SDS011;11000;50.360;7.582;2022-08-25T01:25:44;4.07;;;2.80;;
21677;SDS011;11000;50.360;7.582;2022-08-25T01:28:13;2.80;;;2.40;;
21677;SDS011;11000;50.360;7.582;2022-08-25T01:30:34;5.13;;;2.40;;
21677;SDS011;11000;50.360;7.582;2022-08-25T01:32:55;3.20;;;2.40;;
21677;SDS011;11000;50.360;7.582;2022-08-25T01:35:15;2.77;;;2.30;;
21677;SDS011;11000;50.360;7.582;2022-08-25T01:37:36;3.93;;;2.43;;
21677;SDS011;11000;50.360;7.582;2022-08-25T01:39:57;3.30;;;2.40;;
21677;SDS011;11000;50.360;7.582;2022-08-25T01:42:22;3.23;;;2.37;;
21677;SDS011;11000;50.360;7.582;2022-08-25T01:44:43;4.90;;;2.20;;
21677;SDS011;11000;50.360;7.582;2022-08-25T01:47:05;2.20;;;2.00;;
21677;SDS011;11000;50.360;7.582;2022-08-25T01:49:26;3.33;;;2.53;;
21677;SDS011;11000;50.360;7.582;2022-08-25T01:51:51;7.63;;;2.73;;
21677;SDS011;11000;50.360;7.582;2022-08-25T01:54:15;5.37;;;2.93;;
21677;SDS011;11000;50.360;7.582;2022-08-25T01:56:36;6.10;;;3.00;;
21677;SDS011;11000;50.360;7.582;2022-08-25T01:58:57;5.00;;;2.73;;
21677;SDS011;11000;50.360;7.582;2022-08-25T02:01:19;3.33;;;2.27;;
21677;SDS011;11000;50.360;7.582;2022-08-25T02:03:41;5.43;;;2.63;;
21677;SDS011;11000;50.360;7.582;2022-08-25T02:06:04;2.60;;;2.20;;
21677;SDS011;11000;50.360;7.582;2022-08-25T02:08:25;3.83;;;2.40;;
21677;SDS011;11000;50.360;7.582;2022-08-25T02:10:45;4.17;;;2.63;;
21677;SDS011;11000;50.360;7.582;2022-08-25T02:13:07;2.93;;;2.63;;
21677;SDS011;11000;50.360;7.582;2022-08-25T02:15:27;2.90;;;2.50;;
21677;SDS011;11000;50.360;7.582;2022-08-25T02:17:48;3.23;;;2.47;;
21677;SDS011;11000;50.360;7.582;2022-08-25T02:20:09;3.43;;;2.57;;
21677;SDS011;11000;50.360;7.582;2022-08-25T02:22:29;3.10;;;2.20;;
21677;SDS011;11000;50.360;7.582;2022-08-25T02:24:50;5.40;;;2.57;;
21677;SDS011;11000;50.360;7.582;2022-08-25T02:27:10;2.57;;;2.03;;
21677;SDS011;11000;50.360;7.582;2022-08-25T02:29:31;3.17;;;2.20;;
21677;SDS011;11000;50.360;7.582;2022-08-25T02:31:52;5.80;;;2.20;;
21677;SDS011;11000;50.360;7.582;2022-08-25T02:34:13;7.17;;;2.90;;
21677;SDS011;11000;50.360;7.582;2022-08-25T02:36:34;3.67;;;2.63;;
21677;SDS011;11000;50.360;7.582;2022-08-25T02:38:56;2.83;;;2.60;;
21677;SDS011;11000;50.360;7.582;2022-08-25T02:41:19;4.90;;;2.80;;
21677;SDS011;11000;50.360;7.582;2022-08-25T02:43:42;6.30;;;2.80;;
21677;SDS011;11000;50.360;7.582;2022-08-25T02:46:03;3.90;;;2.27;;
21677;SDS011;11000;50.360;7.582;2022-08-25T02:48:24;3.20;;;2.70;;
21677;SDS011;11000;50.360;7.582;2022-08-25T02:50:46;3.77;;;2.50;;
21677;SDS011;11000;50.360;7.582;2022-08-25T02:53:07;3.90;;;2.43;;
21677;SDS011;11000;50.360;7.582;2022-08-25T02:55:28;4.77;;;3.00;;
21677;SDS011;11000;50.360;7.582;2022-08-25T02:57:48;7.70;;;2.67;;
21677;SDS011;11000;50.360;7.582;2022-08-25T03:00:09;3.57;;;2.67;;
21677;SDS011;11000;50.360;7.582;2022-08-25T03:02:32;4.37;;;2.33;;
21677;SDS011;11000;50.360;7.582;2022-08-25T03:04:52;3.20;;;2.93;;
21677;SDS011;11000;50.360;7.582;2022-08-25T03:07:13;4.17;;;2.40;;
21677;SDS011;11000;50.360;7.582;2022-08-25T03:09:34;3.20;;;2.90;;
21677;SDS011;11000;50.360;7.582;2022-08-25T03:11:54;3.00;;;2.60;;
21677;SDS011;11000;50.360;7.582;2022-08-25T03:14:15;3.83;;;3.20;;
21677;SDS011;11000;50.360;7.582;2022-08-25T03:16:36;2.63;;;2.40;;
21677;SDS011;11000;50.360;7.582;2022-08-25T03:18:57;3.77;;;2.77;;
21677;SDS011;11000;50.360;7.582;2022-08-25T03:21:18;5.57;;;2.40;;
21677;SDS011;11000;50.360;7.582;2022-08-25T03:23:40;4.33;;;2.27;;
21677;SDS011;11000;50.360;7.582;2022-08-25T03:26:01;5.10;;;2.73;;
21677;SDS011;11000;50.360;7.582;2022-08-25T03:28:41;6.43;;;2.60;;
21677;SDS011;11000;50.360;7.582;2022-08-25T03:31:01;3.00;;;2.30;;
21677;SDS011;11000;50.360;7.582;2022-08-25T03:33:22;10.90;;;3.17;;
21677;SDS011;11000;50.360;7.582;2022-08-25T03:35:42;3.93;;;2.60;;
21677;SDS011;11000;50.360;7.582;2022-08-25T03:38:03;4.10;;;2.60;;
21677;SDS011;11000;50.360;7.582;2022-08-25T03:40:24;6.13;;;3.53;;
21677;SDS011;11000;50.360;7.582;2022-08-25T03:42:45;5.10;;;2.60;;
21677;SDS011;11000;50.360;7.582;2022-08-25T03:45:06;4.77;;;2.97;;
21677;SDS011;11000;50.360;7.582;2022-08-25T03:47:27;2.93;;;2.47;;
21677;SDS011;11000;50.360;7.582;2022-08-25T03:49:48;4.03;;;2.73;;
21677;SDS011;11000;50.360;7.582;2022-08-25T03:52:08;2.87;;;2.50;;
21677;SDS011;11000;50.360;7.582;2022-08-25T03:54:29;4.47;;;3.07;;
21677;SDS011;11000;50.360;7.582;2022-08-25T03:56:49;3.03;;;2.50;;
21677;SDS011;11000;50.360;7.582;2022-08-25T03:59:11;3.20;;;2.87;;
21677;SDS011;11000;50.360;7.582;2022-08-25T04:01:32;3.33;;;2.80;;
21677;SDS011;11000;50.360;7.582;2022-08-25T04:03:52;4.63;;;2.77;;
21677;SDS011;11000;50.360;7.582;2022-08-25T04:06:14;5.53;;;2.83;;
21677;SDS011;11000;50.360;7.582;2022-08-25T04:08:36;3.60;;;2.70;;
21677;SDS011;11000;50.360;7.582;2022-08-25T04:10:57;3.60;;;2.70;;
21677;SDS011;11000;50.360;7.582;2022-08-25T04:13:17;6.03;;;2.90;;
21677;SDS011;11000;50.360;7.582;2022-08-25T04:15:40;3.93;;;3.13;;
21677;SDS011;11000;50.360;7.582;2022-08-25T04:18:02;7.63;;;2.67;;
21677;SDS011;11000;50.360;7.582;2022-08-25T04:20:23;5.87;;;2.80;;
21677;SDS011;11000;50.360;7.582;2022-08-25T04:22:44;5.97;;;2.90;;
21677;SDS011;11000;50.360;7.582;2022-08-25T04:25:05;4.83;;;3.17;;
21677;SDS011;11000;50.360;7.582;2022-08-25T04:27:26;6.60;;;3.10;;
21677;SDS011;11000;50.360;7.582;2022-08-25T04:29:47;4.97;;;3.07;;
21677;SDS011;11000;50.360;7.582;2022-08-25T04:32:07;4.10;;;2.57;;
21677;SDS011;11000;50.360;7.582;2022-08-25T04:34:28;4.83;;;2.93;;
21677;SDS011;11000;50.360;7.582;2022-08-25T04:36:48;6.33;;;3.30;;
21677;SDS011;11000;50.360;7.582;2022-08-25T04:39:09;4.97;;;2.87;;
21677;SDS011;11000;50.360;7.582;2022-08-25T04:41:31;4.40;;;3.00;;
21677;SDS011;11000;50.360;7.582;2022-08-25T04:43:51;5.40;;;3.00;;
21677;SDS011;11000;50.360;7.582;2022-08-25T04:46:14;5.80;;;2.90;;
21677;SDS011;11000;50.360;7.582;2022-08-25T04:48:39;5.13;;;2.90;;
21677;SDS011;11000;50.360;7.582;2022-08-25T04:51:04;2.97;;;2.70;;
21677;SDS011;11000;50.360;7.582;2022-08-25T04:53:25;5.97;;;3.00;;
21677;SDS011;11000;50.360;7.582;2022-08-25T04:55:46;5.83;;;2.97;;
21677;SDS011;11000;50.360;7.582;2022-08-25T04:58:07;6.53;;;2.83;;
21677;SDS011;11000;50.360;7.582;2022-08-25T05:00:28;4.03;;;2.80;;
21677;SDS011;11000;50.360;7.582;2022-08-25T05:02:48;3.50;;;3.20;;
21677;SDS011;11000;50.360;7.582;2022-08-25T05:05:09;10.57;;;3.10;;
21677;SDS011;11000;50.360;7.582;2022-08-25T05:07:29;5.30;;;2.60;;
21677;SDS011;11000;50.360;7.582;2022-08-25T05:09:50;4.97;;;2.70;;
21677;SDS011;11000;50.360;7.582;2022-08-25T05:12:11;5.57;;;3.67;;
21677;SDS011;11000;50.360;7.582;2022-08-25T05:14:32;5.23;;;2.53;;
21677;SDS011;11000;50.360;7.582;2022-08-25T05:16:53;5.87;;;2.90;;
21677;SDS011;11000;50.360;7.582;2022-08-25T05:19:14;6.87;;;3.50;;
21677;SDS011;11000;50.360;7.582;2022-08-25T05:21:35;4.80;;;2.60;;
21677;SDS011;11000;50.360;7.582;2022-08-25T05:23:56;3.70;;;2.70;;
21677;SDS011;11000;50.360;7.582;2022-08-25T05:26:21;3.43;;;2.77;;
21677;SDS011;11000;50.360;7.582;2022-08-25T05:28:43;3.93;;;2.90;;
21677;SDS011;11000;50.360;7.582;2022-08-25T05:31:03;4.77;;;2.70;;
21677;SDS011;11000;50.360;7.582;2022-08-25T05:33:24;3.33;;;2.60;;
21677;SDS011;11000;50.360;7.582;2022-08-25T05:35:45;3.73;;;2.93;;
21677;SDS011;11000;50.360;7.582;2022-08-25T05:38:05;3.90;;;2.73;;
21677;SDS011;11000;50.360;7.582;2022-08-25T05:40:26;4.77;;;3.17;;
21677;SDS011;11000;50.360;7.582;2022-08-25T05:42:47;6.57;;;2.80;;
21677;SDS011;11000;50.360;7.582;2022-08-25T05:45:08;3.10;;;2.77;;
21677;SDS011;11000;50.360;7.582;2022-08-25T05:47:28;4.23;;;2.83;;
21677;SDS011;11000;50.360;7.582;2022-08-25T05:49:49;4.70;;;2.77;;
21677;SDS011;11000;50.360;7.582;2022-08-25T05:52:09;6.50;;;2.83;;
21677;SDS011;11000;50.360;7.582;2022-08-25T05:54:31;4.67;;;3.20;;
21677;SDS011;11000;50.360;7.582;2022-08-25T05:56:51;6.50;;;3.23;;
21677;SDS011;11000;50.360;7.582;2022-08-25T05:59:12;4.43;;;3.43;;
21677;SDS011;11000;50.360;7.582;2022-08-25T06:01:32;3.97;;;3.27;;
21677;SDS011;11000;50.360;7.582;2022-08-25T06:04:12;7.37;;;2.97;;
21677;SDS011;11000;50.360;7.582;2022-08-25T06:06:41;4.73;;;2.70;;
21677;SDS011;11000;50.360;7.582;2022-08-25T06:09:03;4.30;;;2.80;;
21677;SDS011;11000;50.360;7.582;2022-08-25T06:11:25;4.07;;;3.20;;
21677;SDS011;11000;50.360;7.582;2022-08-25T06:13:46;4.27;;;3.00;;
21677;SDS011;11000;50.360;7.582;2022-08-25T06:16:06;4.97;;;2.70;;
21677;SDS011;11000;50.360;7.582;2022-08-25T06:18:27;7.60;;;3.00;;
21677;SDS011;11000;50.360;7.582;2022-08-25T06:20:48;4.30;;;2.80;;
21677;SDS011;11000;50.360;7.582;2022-08-25T06:23:08;5.27;;;2.60;;
21677;SDS011;11000;50.360;7.582;2022-08-25T06:25:29;5.57;;;2.53;;
21677;SDS011;11000;50.360;7.582;2022-08-25T06:27:53;4.50;;;2.63;;
21677;SDS011;11000;50.360;7.582;2022-08-25T06:30:15;6.63;;;2.53;;
21677;SDS011;11000;50.360;7.582;2022-08-25T06:32:38;4.83;;;2.33;;
21677;SDS011;11000;50.360;7.582;2022-08-25T06:35:00;3.00;;;2.73;;
21677;SDS011;11000;50.360;7.582;2022-08-25T06:37:32;3.30;;;3.00;;
21677;SDS011;11000;50.360;7.582;2022-08-25T06:39:52;5.03;;;2.40;;
21677;SDS011;11000;50.360;7.582;2022-08-25T06:42:13;4.97;;;2.37;;
21677;SDS011;11000;50.360;7.582;2022-08-25T06:44:33;3.97;;;2.50;;
21677;SDS011;11000;50.360;7.582;2022-08-25T06:46:54;3.37;;;2.57;;
21677;SDS011;11000;50.360;7.582;2022-08-25T06:49:15;4.93;;;2.90;;
21677;SDS011;11000;50.360;7.582;2022-08-25T06:51:36;4.33;;;2.90;;
21677;SDS011;11000;50.360;7.582;2022-08-25T06:53:56;5.03;;;3.00;;
21677;SDS011;11000;50.360;7.582;2022-08-25T06:56:18;3.17;;;2.60;;
21677;SDS011;11000;50.360;7.582;2022-08-25T06:58:40;3.87;;;3.23;;
21677;SDS011;11000;50.360;7.582;2022-08-25T07:03:35;4.73;;;2.97;;
21677;SDS011;11000;50.360;7.582;2022-08-25T07:05:56;5.50;;;3.17;;
21677;SDS011;11000;50.360;7.582;2022-08-25T07:08:17;6.33;;;3.17;;
21677;SDS011;11000;50.360;7.582;2022-08-25T07:10:38;6.03;;;3.27;;
21677;SDS011;11000;50.360;7.582;2022-08-25T07:12:58;4.73;;;2.93;;
21677;SDS011;11000;50.360;7.582;2022-08-25T07:15:19;5.13;;;3.13;;
21677;SDS011;11000;50.360;7.582;2022-08-25T07:17:40;4.73;;;2.97;;
21677;SDS011;11000;50.360;7.582;2022-08-25T07:20:01;3.93;;;3.00;;
21677;SDS011;11000;50.360;7.582;2022-08-25T07:22:21;5.07;;;3.27;;
21677;SDS011;11000;50.360;7.582;2022-08-25T07:24:42;6.17;;;3.03;;
21677;SDS011;11000;50.360;7.582;2022-08-25T07:27:03;3.40;;;2.97;;
21677;SDS011;11000;50.360;7.582;2022-08-25T07:29:26;3.87;;;3.20;;
21677;SDS011;11000;50.360;7.582;2022-08-25T07:31:47;6.60;;;3.07;;
21677;SDS011;11000;50.360;7.582;2022-08-25T07:34:08;5.17;;;3.47;;
21677;SDS011;11000;50.360;7.582;2022-08-25T07:36:47;6.93;;;2.93;;
21677;SDS011;11000;50.360;7.582;2022-08-25T07:39:08;6.67;;;3.50;;
21677;SDS011;11000;50.360;7.582;2022-08-25T07:41:29;7.13;;;3.37;;
21677;SDS011;11000;50.360;7.582;2022-08-25T07:43:50;3.90;;;2.90;;
21677;SDS011;11000;50.360;7.582;2022-08-25T07:46:11;4.10;;;3.10;;
21677;SDS011;11000;50.360;7.582;2022-08-25T07:48:32;6.83;;;3.23;;
21677;SDS011;11000;50.360;7.582;2022-08-25T07:50:52;7.37;;;3.30;;
21677;SDS011;11000;50.360;7.582;2022-08-25T07:53:14;8.20;;;3.37;;
21677;SDS011;11000;50.360;7.582;2022-08-25T07:55:35;7.60;;;3.40;;
21677;SDS011;11000;50.360;7.582;2022-08-25T07:57:57;6.43;;;3.40;;
21677;SDS011;11000;50.360;7.582;2022-08-25T08:00:18;7.30;;;3.93;;
21677;SDS011;11000;50.360;7.582;2022-08-25T08:02:39;4.40;;;3.27;;
21677;SDS011;11000;50.360;7.582;2022-08-25T08:05:00;5.00;;;3.80;;
21677;SDS011;11000;50.360;7.582;2022-08-25T08:07:23;5.80;;;3.70;;
21677;SDS011;11000;50.360;7.582;2022-08-25T08:09:45;6.07;;;3.87;;
21677;SDS011;11000;50.360;7.582;2022-08-25T08:12:06;5.20;;;3.67;;
21677;SDS011;11000;50.360;7.582;2022-08-25T08:14:27;5.20;;;4.03;;
21677;SDS011;11000;50.360;7.582;2022-08-25T08:16:47;4.43;;;3.97;;
21677;SDS011;11000;50.360;7.582;2022-08-25T08:19:08;6.10;;;4.30;;
21677;SDS011;11000;50.360;7.582;2022-08-25T08:21:30;6.07;;;4.43;;
21677;SDS011;11000;50.360;7.582;2022-08-25T08:23:52;5.70;;;4.10;;
21677;SDS011;11000;50.360;7.582;2022-08-25T08:26:14;4.47;;;4.07;;
21677;SDS011;11000;50.360;7.582;2022-08-25T08:28:35;5.83;;;4.40;;
21677;SDS011;11000;50.360;7.582;2022-08-25T08:30:56;5.37;;;4.27;;
21677;SDS011;11000;50.360;7.582;2022-08-25T08:33:16;5.63;;;4.60;;
21677;SDS011;11000;50.360;7.582;2022-08-25T08:35:37;7.63;;;4.63;;
21677;SDS011;11000;50.360;7.582;2022-08-25T08:37:58;6.33;;;4.43;;
21677;SDS011;11000;50.360;7.582;2022-08-25T08:40:19;6.43;;;4.47;;
21677;SDS011;11000;50.360;7.582;2022-08-25T08:45:18;6.80;;;4.53;;
21677;SDS011;11000;50.360;7.582;2022-08-25T08:47:52;6.00;;;4.13;;
21677;SDS011;11000;50.360;7.582;2022-08-25T08:50:36;6.30;;;3.70;;
21677;SDS011;11000;50.360;7.582;2022-08-25T08:55:54;4.37;;;3.87;;
21677;SDS011;11000;50.360;7.582;2022-08-25T08:59:00;6.83;;;4.77;;
21677;SDS011;11000;50.360;7.582;2022-08-25T09:01:03;5.10;;;3.87;;
21677;SDS011;11000;50.360;7.582;2022-08-25T09:03:30;6.63;;;4.20;;
21677;SDS011;11000;50.360;7.582;2022-08-25T09:05:56;6.40;;;4.53;;
21677;SDS011;11000;50.360;7.582;2022-08-25T09:08:19;4.97;;;4.50;;
21677;SDS011;11000;50.360;7.582;2022-08-25T09:13:15;4.37;;;3.97;;
21677;SDS011;11000;50.360;7.582;2022-08-25T09:16:05;5.73;;;4.60;;
21677;SDS011;11000;50.360;7.582;2022-08-25T09:27:25;4.73;;;4.33;;
21677;SDS011;11000;50.360;7.582;2022-08-25T09:30:06;4.87;;;3.93;;
21677;SDS011;11000;50.360;7.582;2022-08-25T09:32:30;4.03;;;3.73;;
21677;SDS011;11000;50.360;7.582;2022-08-25T09:34:54;4.00;;;3.43;;
21677;SDS011;11000;50.360;7.582;2022-08-25T09:37:15;3.70;;;3.33;;
21677;SDS011;11000;50.360;7.582;2022-08-25T09:39:35;3.63;;;3.30;;
21677;SDS011;11000;50.360;7.582;2022-08-25T09:41:58;3.73;;;3.43;;
21677;SDS011;11000;50.360;7.582;2022-08-25T09:45:01;5.03;;;3.07;;
21677;SDS011;11000;50.360;7.582;2022-08-25T09:49:41;4.60;;;3.10;;
21677;SDS011;11000;50.360;7.582;2022-08-25T09:52:22;3.30;;;3.00;;
21677;SDS011;11000;50.360;7.582;2022-08-25T09:54:55;3.20;;;2.60;;
21677;SDS011;11000;50.360;7.582;2022-08-25T10:00:24;3.37;;;3.13;;
21677;SDS011;11000;50.360;7.582;2022-08-25T10:03:12;5.70;;;2.97;;
21677;SDS011;11000;50.360;7.582;2022-08-25T10:05:34;3.53;;;3.23;;
21677;SDS011;11000;50.360;7.582;2022-08-25T10:08:23;4.30;;;2.47;;
21677;SDS011;11000;50.360;7.582;2022-08-25T10:10:54;7.37;;;3.33;;
21677;SDS011;11000;50.360;7.582;2022-08-25T10:13:17;3.37;;;3.07;;
21677;SDS011;11000;50.360;7.582;2022-08-25T10:15:39;6.00;;;3.30;;
21677;SDS011;11000;50.360;7.582;2022-08-25T10:20:43;3.60;;;3.30;;
21677;SDS011;11000;50.360;7.582;2022-08-25T10:23:19;3.43;;;3.10;;
21677;SDS011;11000;50.360;7.582;2022-08-25T10:25:47;4.13;;;2.93;;
21677;SDS011;11000;50.360;7.582;2022-08-25T10:31:03;3.07;;;2.57;;
21677;SDS011;11000;50.360;7.582;2022-08-25T10:33:38;6.97;;;3.37;;
21677;SDS011;11000;50.360;7.582;2022-08-25T10:36:15;2.77;;;2.57;;
21677;SDS011;11000;50.360;7.582;2022-08-25T10:38:44;3.43;;;3.13;;
21677;SDS011;11000;50.360;7.582;2022-08-25T10:43:56;4.23;;;2.77;;
21677;SDS011;11000;50.360;7.582;2022-08-25T10:49:46;3.10;;;2.60;;
21677;SDS011;11000;50.360;7.582;2022-08-25T10:52:21;2.90;;;2.70;;
21677;SDS011;11000;50.360;7.582;2022-08-25T10:54:57;3.37;;;2.70;;
21677;SDS011;11000;50.360;7.582;2022-08-25T10:57:44;2.70;;;2.50;;
21677;SDS011;11000;50.360;7.582;2022-08-25T11:00:17;3.63;;;2.30;;
21677;SDS011;11000;50.360;7.582;2022-08-25T11:10:49;3.23;;;2.30;;
21677;SDS011;11000;50.360;7.582;2022-08-25T11:13:24;2.67;;;2.10;;
21677;SDS011;11000;50.360;7.582;2022-08-25T11:15:54;2.97;;;2.50;;
21677;SDS011;11000;50.360;7.582;2022-08-25T11:18:30;3.90;;;3.00;;
21677;SDS011;11000;50.360;7.582;2022-08-25T11:21:04;3.77;;;2.90;;
21677;SDS011;11000;50.360;7.582;2022-08-25T11:23:32;4.47;;;3.27;;
21677;SDS011;11000;50.360;7.582;2022-08-25T11:26:10;7.13;;;3.33;;
21677;SDS011;11000;50.360;7.582;2022-08-25T11:31:20;3.90;;;3.20;;
21677;SDS011;11000;50.360;7.582;2022-08-25T11:33:42;6.23;;;3.27;;
21677;SDS011;11000;50.360;7.582;2022-08-25T11:51:42;4.20;;;3.80;;
21677;SDS011;11000;50.360;7.582;2022-08-25T11:54:16;5.73;;;3.80;;
21677;SDS011;11000;50.360;7.582;2022-08-25T11:56:51;5.07;;;3.50;;
21677;SDS011;11000;50.360;7.582;2022-08-25T11:59:12;5.03;;;3.40;;
21677;SDS011;11000;50.360;7.582;2022-08-25T12:02:33;4.93;;;3.87;;
21677;SDS011;11000;50.360;7.582;2022-08-25T12:04:51;4.17;;;3.80;;
21677;SDS011;11000;50.360;7.582;2022-08-25T12:07:15;4.47;;;4.10;;
21677;SDS011;11000;50.360;7.582;2022-08-25T12:12:27;5.20;;;3.90;;
21677;SDS011;11000;50.360;7.582;2022-08-25T12:14:50;5.73;;;4.10;;
21677;SDS011;11000;50.360;7.582;2022-08-25T12:17:20;5.10;;;3.83;;
21677;SDS011;11000;50.360;7.582;2022-08-25T12:27:03;4.73;;;3.67;;
21677;SDS011;11000;50.360;7.582;2022-08-25T12:29:36;4.17;;;3.77;;
21677;SDS011;11000;50.360;7.582;2022-08-25T12:34:59;4.43;;;3.60;;
21677;SDS011;11000;50.360;7.582;2022-08-25T12:40:23;4.43;;;3.67;;
21677;SDS011;11000;50.360;7.582;2022-08-25T12:42:58;4.20;;;3.80;;
21677;SDS011;11000;50.360;7.582;2022-08-25T12:45:43;3.70;;;3.40;;
21677;SDS011;11000;50.360;7.582;2022-08-25T12:50:47;4.72;;;4.15;;
21677;SDS011;11000;50.360;7.582;2022-08-25T12:53:39;3.90;;;3.60;;
21677;SDS011;11000;50.360;7.582;2022-08-25T12:56:06;3.47;;;3.17;;
21677;SDS011;11000;50.360;7.582;2022-08-25T13:04:34;3.40;;;3.00;;
21677;SDS011;11000;50.360;7.582;2022-08-25T13:10:11;4.37;;;3.80;;
21677;SDS011;11000;50.360;7.582;2022-08-25T13:18:12;4.80;;;3.90;;
21677;SDS011;11000;50.360;7.582;2022-08-25T13:20:34;7.63;;;4.10;;
21677;SDS011;11000;50.360;7.582;2022-08-25T13:22:58;4.77;;;4.37;;
21677;SDS011;11000;50.360;7.582;2022-08-25T13:25:20;6.10;;;4.30;;
21677;SDS011;11000;50.360;7.582;2022-08-25T13:27:46;3.97;;;3.67;;
21677;SDS011;11000;50.360;7.582;2022-08-25T13:30:15;4.60;;;4.20;;
21677;SDS011;11000;50.360;7.582;2022-08-25T13:32:42;4.10;;;3.70;;
21677;SDS011;11000;50.360;7.582;2022-08-25T13:35:10;4.90;;;4.17;;
21677;SDS011;11000;50.360;7.582;2022-08-25T13:37:31;4.17;;;3.87;;
21677;SDS011;11000;50.360;7.582;2022-08-25T13:42:35;5.67;;;4.30;;
21677;SDS011;11000;50.360;7.582;2022-08-25T13:44:58;5.40;;;4.27;;
21677;SDS011;11000;50.360;7.582;2022-08-25T13:47:40;4.67;;;4.10;;
21677;SDS011;11000;50.360;7.582;2022-08-25T13:50:20;4.67;;;4.13;;
21677;SDS011;11000;50.360;7.582;2022-08-25T13:52:59;4.63;;;4.27;;
21677;SDS011;11000;50.360;7.582;2022-08-25T13:57:57;4.97;;;3.77;;
21677;SDS011;11000;50.360;7.582;2022-08-25T14:02:53;4.33;;;3.93;;
21677;SDS011;11000;50.360;7.582;2022-08-25T14:05:15;6.87;;;4.13;;
21677;SDS011;11000;50.360;7.582;2022-08-25T14:07:53;3.70;;;3.40;;
21677;SDS011;11000;50.360;7.582;2022-08-25T14:15:34;4.50;;;3.95;;
21677;SDS011;11000;50.360;7.582;2022-08-25T14:18:05;7.45;;;4.20;;
21677;SDS011;11000;50.360;7.582;2022-08-25T14:20:29;4.20;;;3.80;;
21677;SDS011;11000;50.360;7.582;2022-08-25T14:22:52;5.03;;;3.85;;
21677;SDS011;11000;50.360;7.582;2022-08-25T14:25:18;7.20;;;3.70;;
21677;SDS011;11000;50.360;7.582;2022-08-25T14:27:42;4.90;;;3.27;;
21677;SDS011;11000;50.360;7.582;2022-08-25T14:30:04;4.10;;;3.33;;
21677;SDS011;11000;50.360;7.582;2022-08-25T14:32:25;4.37;;;3.97;;
21677;SDS011;11000;50.360;7.582;2022-08-25T14:34:46;4.30;;;3.87;;
21677;SDS011;11000;50.360;7.582;2022-08-25T14:37:11;5.03;;;3.73;;
21677;SDS011;11000;50.360;7.582;2022-08-25T14:39:33;6.77;;;3.87;;
21677;SDS011;11000;50.360;7.582;2022-08-25T14:41:54;4.03;;;3.67;;
21677;SDS011;11000;50.360;7.582;2022-08-25T14:44:14;5.60;;;3.97;;
21677;SDS011;11000;50.360;7.582;2022-08-25T14:46:37;3.60;;;3.30;;
21677;SDS011;11000;50.360;7.582;2022-08-25T14:49:06;5.20;;;3.73;;
21677;SDS011;11000;50.360;7.582;2022-08-25T14:51:29;4.30;;;3.90;;
21677;SDS011;11000;50.360;7.582;2022-08-25T14:53:51;7.43;;;3.80;;
21677;SDS011;11000;50.360;7.582;2022-08-25T14:56:14;6.30;;;3.50;;
21677;SDS011;11000;50.360;7.582;2022-08-25T14:58:34;4.55;;;3.40;;
21677;SDS011;11000;50.360;7.582;2022-08-25T15:00:56;3.85;;;3.45;;
21677;SDS011;11000;50.360;7.582;2022-08-25T15:03:28;5.40;;;3.53;;
21677;SDS011;11000;50.360;7.582;2022-08-25T15:05:50;5.50;;;3.85;;
21677;SDS011;11000;50.360;7.582;2022-08-25T15:08:11;4.90;;;3.70;;
21677;SDS011;11000;50.360;7.582;2022-08-25T15:10:50;4.70;;;3.80;;
21677;SDS011;11000;50.360;7.582;2022-08-25T15:13:11;3.83;;;3.43;;
21677;SDS011;11000;50.360;7.582;2022-08-25T15:15:33;4.73;;;3.60;;
21677;SDS011;11000;50.360;7.582;2022-08-25T15:17:59;4.67;;;4.07;;
21677;SDS011;11000;50.360;7.582;2022-08-25T15:20:19;5.37;;;4.00;;
21677;SDS011;11000;50.360;7.582;2022-08-25T15:22:40;4.40;;;3.67;;
21677;SDS011;11000;50.360;7.582;2022-08-25T15:25:00;3.93;;;3.50;;
21677;SDS011;11000;50.360;7.582;2022-08-25T15:27:21;4.43;;;3.57;;
21677;SDS011;11000;50.360;7.582;2022-08-25T15:29:42;6.37;;;3.47;;
21677;SDS011;11000;50.360;7.582;2022-08-25T15:32:03;4.05;;;3.65;;
21677;SDS011;11000;50.360;7.582;2022-08-25T15:34:26;3.73;;;3.33;;
21677;SDS011;11000;50.360;7.582;2022-08-25T15:36:47;4.70;;;3.80;;
21677;SDS011;11000;50.360;7.582;2022-08-25T15:39:08;4.20;;;3.80;;
21677;SDS011;11000;50.360;7.582;2022-08-25T15:41:29;4.20;;;3.77;;
21677;SDS011;11000;50.360;7.582;2022-08-25T15:43:49;4.33;;;3.87;;
21677;SDS011;11000;50.360;7.582;2022-08-25T15:46:10;4.43;;;4.03;;
21677;SDS011;11000;50.360;7.582;2022-08-25T15:48:35;5.97;;;3.77;;
21677;SDS011;11000;50.360;7.582;2022-08-25T15:50:56;4.57;;;4.17;;
21677;SDS011;11000;50.360;7.582;2022-08-25T15:53:19;5.70;;;4.07;;
21677;SDS011;11000;50.360;7.582;2022-08-25T15:55:41;4.60;;;4.13;;
21677;SDS011;11000;50.360;7.582;2022-08-25T15:58:02;6.70;;;4.20;;
21677;SDS011;11000;50.360;7.582;2022-08-25T16:00:22;4.53;;;3.60;;
21677;SDS011;11000;50.360;7.582;2022-08-25T16:02:43;4.73;;;4.20;;
21677;SDS011;11000;50.360;7.582;2022-08-25T16:05:04;4.80;;;4.30;;
21677;SDS011;11000;50.360;7.582;2022-08-25T16:07:26;4.23;;;3.93;;
21677;SDS011;11000;50.360;7.582;2022-08-25T16:09:47;3.93;;;3.60;;
21677;SDS011;11000;50.360;7.582;2022-08-25T16:12:08;4.30;;;3.90;;
21677;SDS011;11000;50.360;7.582;2022-08-25T16:14:28;4.40;;;4.00;;
21677;SDS011;11000;50.360;7.582;2022-08-25T16:16:49;4.37;;;3.70;;
21677;SDS011;11000;50.360;7.582;2022-08-25T16:19:09;4.50;;;4.10;;
21677;SDS011;11000;50.360;7.582;2022-08-25T16:21:31;4.30;;;3.83;;